createdAt,value
2022-11-03T00:02:17.689Z,9.27
2022-11-03T00:04:44.885Z,8.23
2022-11-03T00:07:12.009Z,11.13
2022-11-03T00:09:41.394Z,9.33
2022-11-03T00:12:08.712Z,8.53
2022-11-03T00:14:35.836Z,9.00
2022-11-03T00:17:03.027Z,7.17
2022-11-03T00:19:30.126Z,9.60
2022-11-03T00:22:00.606Z,6.43
2022-11-03T00:24:27.743Z,11.40
2022-11-03T00:26:54.792Z,9.10
2022-11-03T00:29:27.243Z,9.00
2022-11-03T00:31:54.289Z,7.70
2022-11-03T00:34:21.388Z,10.23
2022-11-03T00:36:48.568Z,7.40
2022-11-03T00:39:15.687Z,9.63
2022-11-03T00:41:44.914Z,9.93
2022-11-03T00:44:14.139Z,10.87
2022-11-03T00:46:41.267Z,7.07
2022-11-03T00:49:08.399Z,7.83
2022-11-03T00:51:36.081Z,9.77
2022-11-03T00:54:07.423Z,8.27
2022-11-03T00:56:44.362Z,8.67
2022-11-03T00:59:11.477Z,7.00
2022-11-03T01:01:47.137Z,9.27
2022-11-03T01:04:35.438Z,7.70
2022-11-03T01:07:04.345Z,7.80
2022-11-03T01:09:37.703Z,8.63
2022-11-03T01:12:15.711Z,8.47
2022-11-03T01:14:46.072Z,9.93
2022-11-03T01:17:16.419Z,9.03
2022-11-03T01:19:43.555Z,9.87
2022-11-03T01:22:11.546Z,7.30
2022-11-03T01:24:42.338Z,8.37
2022-11-03T01:27:13.176Z,9.70
2022-11-03T01:29:41.315Z,11.53
2022-11-03T01:32:11.587Z,10.10
2022-11-03T01:34:38.693Z,8.03
2022-11-03T01:37:06.083Z,5.00
2022-11-03T01:39:35.452Z,10.67
2022-11-03T01:42:04.865Z,11.20
2022-11-03T01:44:43.400Z,7.37
2022-11-03T01:47:37.196Z,7.27
2022-11-03T01:50:24.606Z,8.03
2022-11-03T01:52:56.539Z,6.40
2022-11-03T01:55:31.213Z,9.17
2022-11-03T01:58:05.564Z,10.23
2022-11-03T02:00:33.008Z,9.73
2022-11-03T02:03:01.103Z,6.23
2022-11-03T02:05:30.111Z,7.57
2022-11-03T02:08:12.456Z,8.50
2022-11-03T02:10:41.969Z,6.83
2022-11-03T02:13:35.378Z,9.00
2022-11-03T02:16:02.630Z,9.43
2022-11-03T02:18:33.280Z,9.50
2022-11-03T02:21:25.855Z,8.70
2022-11-03T02:24:37.219Z,9.97
2022-11-03T02:27:04.464Z,8.80
2022-11-03T02:29:33.802Z,8.47
2022-11-03T02:32:11.394Z,10.83
2022-11-03T02:34:48.730Z,6.93
2022-11-03T02:37:21.204Z,7.37
2022-11-03T02:39:58.882Z,9.17
2022-11-03T02:42:26.738Z,6.50
2022-11-03T02:44:57.213Z,9.50
2022-11-03T02:47:28.019Z,6.00
2022-11-03T02:52:47.418Z,9.27
2022-11-03T02:55:48.617Z,8.13
2022-11-03T02:58:53.252Z,6.80
2022-11-03T03:01:37.231Z,10.00
2022-11-03T03:04:09.509Z,6.80
2022-11-03T03:06:48.454Z,7.40
2022-11-03T03:09:24.953Z,4.90
2022-11-03T03:11:55.288Z,7.00
2022-11-03T03:14:28.147Z,5.87
2022-11-03T03:17:02.056Z,7.53
2022-11-03T03:19:47.783Z,7.50
2022-11-03T03:22:39.025Z,10.20
2022-11-03T03:25:21.925Z,6.93
2022-11-03T03:27:53.562Z,12.07
2022-11-03T03:30:21.807Z,9.60
2022-11-03T03:32:51.528Z,4.50
2022-11-03T03:35:25.787Z,5.87
2022-11-03T03:37:57.577Z,8.67
2022-11-03T03:40:40.205Z,9.37
2022-11-03T03:43:10.191Z,7.77
2022-11-03T03:45:38.621Z,5.90
2022-11-03T03:48:09.730Z,5.57
2022-11-03T03:50:39.828Z,6.77
2022-11-03T03:53:11.625Z,9.23
2022-11-03T03:55:48.329Z,10.30
2022-11-03T03:58:18.500Z,7.13
2022-11-03T04:00:46.175Z,8.77
2022-11-03T04:03:18.633Z,4.43
2022-11-03T04:05:46.274Z,9.13
2022-11-03T04:08:17.051Z,8.53
2022-11-03T04:11:05.532Z,7.43
2022-11-03T04:13:52.123Z,6.40
2022-11-03T04:16:37.725Z,7.03
2022-11-03T04:19:23.547Z,7.70
2022-11-03T04:22:09.138Z,6.57
2022-11-03T04:24:38.610Z,5.83
2022-11-03T04:27:27.047Z,5.83
2022-11-03T04:30:17.388Z,9.67
2022-11-03T04:32:53.365Z,9.57
2022-11-03T04:35:24.045Z,8.20
2022-11-03T04:38:14.058Z,7.20
2022-11-03T04:40:54.857Z,6.70
2022-11-03T04:43:30.246Z,6.60
2022-11-03T04:45:57.349Z,6.27
2022-11-03T04:48:31.929Z,9.43
2022-11-03T04:51:02.482Z,9.17
2022-11-03T04:53:32.895Z,6.27
2022-11-03T04:56:07.235Z,5.23
2022-11-03T04:58:36.134Z,9.93
2022-11-03T05:01:04.802Z,8.23
2022-11-03T05:03:36.282Z,7.03
2022-11-03T05:06:16.228Z,6.57
2022-11-03T05:08:50.868Z,6.10
2022-11-03T05:11:25.332Z,8.17
2022-11-03T05:13:54.896Z,7.93
2022-11-03T05:16:24.573Z,6.43
2022-11-03T05:18:52.273Z,8.70
2022-11-03T05:21:22.811Z,6.60
2022-11-03T05:24:03.608Z,7.03
2022-11-03T05:26:35.616Z,7.13
2022-11-03T05:29:18.147Z,7.00
2022-11-03T05:31:48.297Z,8.30
2022-11-03T05:34:30.705Z,8.03
2022-11-03T05:37:28.350Z,8.00
2022-11-03T05:40:00.486Z,6.17
2022-11-03T05:42:35.055Z,8.10
2022-11-03T05:45:24.349Z,9.13
2022-11-03T05:47:55.410Z,8.20
2022-11-03T05:50:28.552Z,6.50
2022-11-03T05:53:12.782Z,7.63
2022-11-03T05:55:40.830Z,8.83
2022-11-03T05:58:41.230Z,7.23
2022-11-03T06:01:28.649Z,7.20
2022-11-03T06:03:56.432Z,10.87
2022-11-03T06:06:32.794Z,4.87
2022-11-03T06:09:03.850Z,8.23
2022-11-03T06:11:38.296Z,5.60
2022-11-03T06:14:26.300Z,8.20
2022-11-03T06:17:20.625Z,7.53
2022-11-03T06:19:50.830Z,7.47
2022-11-03T06:22:35.201Z,8.40
2022-11-03T06:25:24.541Z,5.53
2022-11-03T06:27:52.126Z,9.00
2022-11-03T06:30:26.413Z,11.13
2022-11-03T06:33:14.878Z,8.43
2022-11-03T06:35:43.426Z,7.17
2022-11-03T06:38:22.568Z,6.67
2022-11-03T06:40:52.310Z,7.37
2022-11-03T06:43:40.633Z,7.60
2022-11-03T06:46:36.451Z,9.63
2022-11-03T06:49:32.714Z,10.47
2022-11-03T06:52:06.116Z,6.83
2022-11-03T06:54:33.375Z,8.47
2022-11-03T06:57:00.463Z,7.27
2022-11-03T06:59:27.602Z,6.47
2022-11-03T07:01:55.998Z,5.80
2022-11-03T07:04:28.583Z,5.87
2022-11-03T07:07:02.684Z,8.50
2022-11-03T07:09:29.884Z,10.13
2022-11-03T07:12:00.750Z,11.27
2022-11-03T07:14:28.887Z,9.07
2022-11-03T07:17:03.234Z,8.45
2022-11-03T07:19:35.275Z,9.23
2022-11-03T07:22:08.939Z,9.00
2022-11-03T07:24:45.801Z,7.97
2022-11-03T07:27:25.585Z,7.30
2022-11-03T07:29:58.107Z,8.07
2022-11-03T07:32:31.181Z,9.98
2022-11-03T07:35:10.993Z,7.27
2022-11-03T07:37:41.134Z,7.00
2022-11-03T07:40:18.773Z,7.77
2022-11-03T07:42:45.856Z,6.37
2022-11-03T07:45:41.941Z,9.60
2022-11-03T07:48:20.967Z,9.40
2022-11-03T07:50:56.782Z,8.60
2022-11-03T07:53:51.032Z,7.40
2022-11-03T07:56:34.775Z,9.00
2022-11-03T07:59:11.697Z,12.10
2022-11-03T08:01:43.018Z,7.20
2022-11-03T08:04:22.032Z,11.07
2022-11-03T08:06:49.466Z,13.87
2022-11-03T08:09:16.761Z,14.40
2022-11-03T08:11:44.861Z,7.97
2022-11-03T08:14:12.391Z,8.40
2022-11-03T08:16:41.790Z,10.43
2022-11-03T08:19:09.324Z,11.70
2022-11-03T08:21:36.564Z,19.30
2022-11-03T08:24:04.801Z,10.20
2022-11-03T08:26:32.030Z,7.50
2022-11-03T08:28:59.108Z,6.97
2022-11-03T08:31:26.253Z,7.93
2022-11-03T08:33:55.382Z,5.93
2022-11-03T08:36:22.935Z,6.00
2022-11-03T08:38:50.079Z,7.13
2022-11-03T08:41:17.183Z,15.53
2022-11-03T08:43:44.307Z,7.88
2022-11-03T08:46:17.681Z,11.57
2022-11-03T08:48:45.816Z,17.13
2022-11-03T08:51:14.212Z,21.43
2022-11-03T08:53:44.815Z,11.87
2022-11-03T08:56:14.330Z,15.00
2022-11-03T08:58:43.696Z,7.50
2022-11-03T09:01:13.072Z,5.47
2022-11-03T09:03:40.956Z,11.20
2022-11-03T09:06:09.984Z,6.77
2022-11-03T09:11:26.550Z,6.70
2022-11-03T09:13:53.699Z,6.53
2022-11-03T09:16:20.831Z,5.72
2022-11-03T09:18:48.131Z,6.20
2022-11-03T09:21:15.255Z,4.20
2022-11-03T09:23:42.454Z,9.30
2022-11-03T09:26:09.652Z,4.38
2022-11-03T09:28:36.732Z,9.50
2022-11-03T09:31:03.855Z,7.93
2022-11-03T09:33:33.280Z,8.93
2022-11-03T09:36:02.814Z,4.53
2022-11-03T09:38:29.914Z,6.20
2022-11-03T09:40:57.043Z,5.17
2022-11-03T09:43:24.248Z,5.57
2022-11-03T09:45:51.508Z,5.57
2022-11-03T09:48:18.642Z,7.43
2022-11-03T09:50:49.614Z,6.50
2022-11-03T09:53:16.752Z,5.67
2022-11-03T09:55:43.918Z,7.67
2022-11-03T09:58:16.801Z,7.22
2022-11-03T10:00:46.595Z,10.93
2022-11-03T10:03:16.956Z,4.87
2022-11-03T10:05:45.580Z,7.63
2022-11-03T10:08:23.485Z,4.53
2022-11-03T10:10:52.041Z,4.05
2022-11-03T10:13:23.875Z,5.13
2022-11-03T10:15:50.999Z,4.13
2022-11-03T10:18:20.325Z,6.18
2022-11-03T10:20:47.480Z,6.50
2022-11-03T10:23:14.595Z,6.47
2022-11-03T10:25:43.928Z,7.97
2022-11-03T10:28:23.836Z,8.48
2022-11-03T10:31:11.739Z,5.45
2022-11-03T10:33:41.932Z,9.67
2022-11-03T10:36:15.404Z,7.13
2022-11-03T10:38:43.748Z,4.20
2022-11-03T10:41:15.179Z,3.08
2022-11-03T10:43:44.231Z,10.70
2022-11-03T10:46:29.598Z,4.40
2022-11-03T10:49:12.063Z,6.05
2022-11-03T10:51:43.082Z,4.72
2022-11-03T10:54:16.456Z,4.65
2022-11-03T10:56:45.023Z,6.30
2022-11-03T10:59:19.475Z,3.42
2022-11-03T11:01:47.013Z,5.47
2022-11-03T11:04:20.030Z,4.00
2022-11-03T11:06:48.116Z,3.00
2022-11-03T11:09:28.269Z,2.88
2022-11-03T11:12:16.677Z,4.13
2022-11-03T11:14:56.889Z,2.83
2022-11-03T11:17:45.622Z,3.33
2022-11-03T11:20:24.141Z,5.90
2022-11-03T11:22:53.321Z,6.10
2022-11-03T11:25:59.270Z,3.95
2022-11-03T11:28:26.526Z,3.05
2022-11-03T11:30:57.046Z,2.72
2022-11-03T11:33:26.456Z,4.05
2022-11-03T11:35:58.746Z,3.92
2022-11-03T11:39:27.764Z,6.78
2022-11-03T11:42:20.196Z,5.13
2022-11-03T11:44:57.115Z,4.18
2022-11-03T11:47:26.891Z,5.95
2022-11-03T11:50:14.766Z,3.05
2022-11-03T11:53:00.540Z,4.72
2022-11-03T11:55:50.807Z,4.40
2022-11-03T11:58:22.829Z,7.05
2022-11-03T12:01:04.091Z,2.90
2022-11-03T12:03:42.895Z,4.15
2022-11-03T12:06:13.490Z,5.53
2022-11-03T12:08:41.854Z,3.63
2022-11-03T12:11:11.926Z,6.35
2022-11-03T12:13:51.559Z,5.05
2022-11-03T12:16:35.711Z,5.95
2022-11-03T12:19:37.103Z,5.18
2022-11-03T12:22:10.080Z,5.78
2022-11-03T12:24:47.592Z,4.30
2022-11-03T12:27:18.944Z,5.97
2022-11-03T12:29:46.272Z,2.65
2022-11-03T12:32:32.370Z,2.08
2022-11-03T12:35:00.619Z,6.20
2022-11-03T12:37:27.813Z,5.68
2022-11-03T12:39:54.957Z,4.38
2022-11-03T12:42:24.583Z,4.80
2022-11-03T12:44:52.124Z,5.82
2022-11-03T12:47:22.784Z,2.88
2022-11-03T12:49:49.978Z,3.15
2022-11-03T12:52:17.352Z,6.05
2022-11-03T12:54:44.635Z,3.90
2022-11-03T12:57:11.915Z,3.05
2022-11-03T12:59:39.705Z,4.97
2022-11-03T13:02:08.633Z,9.50
2022-11-03T13:04:35.872Z,6.63
2022-11-03T13:07:03.119Z,4.45
2022-11-03T13:09:32.881Z,3.40
2022-11-03T13:12:18.522Z,3.42
2022-11-03T13:14:47.768Z,6.47
2022-11-03T13:17:16.059Z,8.07
2022-11-03T13:19:43.313Z,6.57
2022-11-03T13:22:10.666Z,5.15
2022-11-03T13:24:38.170Z,4.50
2022-11-03T13:27:05.327Z,7.57
2022-11-03T13:29:35.438Z,4.07
2022-11-03T13:32:04.667Z,6.65
2022-11-03T13:34:31.941Z,5.32
2022-11-03T13:37:01.672Z,6.93
2022-11-03T13:39:28.870Z,8.50
2022-11-03T13:41:56.090Z,7.20
2022-11-03T13:44:23.231Z,4.97
2022-11-03T13:46:51.197Z,5.55
2022-11-03T13:52:05.968Z,4.10
2022-11-03T14:00:09.230Z,6.87
2022-11-03T14:05:23.538Z,4.40
2022-11-03T14:07:50.809Z,7.80
2022-11-03T14:10:18.083Z,3.57
2022-11-03T14:12:45.206Z,6.22
2022-11-03T14:15:12.885Z,4.55
2022-11-03T14:17:40.505Z,8.07
2022-11-03T14:20:11.424Z,5.77
2022-11-03T14:22:40.953Z,4.03
2022-11-03T14:25:08.782Z,5.17
2022-11-03T14:27:36.031Z,3.03
2022-11-03T14:30:06.098Z,6.40
2022-11-03T14:32:33.266Z,2.30
2022-11-03T14:35:02.951Z,3.50
2022-11-03T14:37:30.284Z,2.53
2022-11-03T14:39:57.510Z,4.13
2022-11-03T14:42:24.887Z,4.37
2022-11-03T14:47:22.583Z,5.07
2022-11-03T14:49:50.049Z,7.15
2022-11-03T14:52:17.655Z,3.73
2022-11-03T14:54:44.847Z,3.77
2022-11-03T14:57:14.329Z,6.00
2022-11-03T14:59:41.811Z,3.67
2022-11-03T15:02:09.923Z,2.63
2022-11-03T15:04:37.166Z,2.73
2022-11-03T15:07:04.274Z,4.37
2022-11-03T15:09:31.454Z,3.87
2022-11-03T15:11:58.533Z,5.77
2022-11-03T15:14:25.676Z,3.33
2022-11-03T15:16:52.744Z,4.03
2022-11-03T15:19:23.299Z,4.93
2022-11-03T15:21:50.458Z,2.73
2022-11-03T15:27:07.850Z,6.77
2022-11-03T15:29:35.936Z,3.67
2022-11-03T15:32:03.118Z,2.73
2022-11-03T15:34:30.273Z,3.37
2022-11-03T15:36:59.736Z,2.70
2022-11-03T15:39:29.830Z,3.53
2022-11-03T15:42:00.336Z,2.80
2022-11-03T15:44:30.033Z,4.17
2022-11-03T15:46:57.131Z,3.63
2022-11-03T15:49:24.586Z,2.67
2022-11-03T15:51:51.765Z,3.53
2022-11-03T15:54:18.908Z,4.73
2022-11-03T15:56:46.161Z,2.27
2022-11-03T15:59:13.258Z,3.10
2022-11-03T16:01:40.541Z,5.37
2022-11-03T16:04:07.898Z,6.90
2022-11-03T16:07:06.217Z,3.20
2022-11-03T16:09:26.648Z,3.97
2022-11-03T16:11:53.828Z,3.60
2022-11-03T16:14:20.940Z,4.50
2022-11-03T16:16:48.142Z,4.70
2022-11-03T16:19:15.254Z,5.07
2022-11-03T16:21:45.141Z,4.63
2022-11-03T16:24:14.863Z,3.53
2022-11-03T16:26:41.947Z,3.73
2022-11-03T16:29:09.358Z,4.53
2022-11-03T16:31:39.009Z,4.73
2022-11-03T16:34:08.528Z,3.47
2022-11-03T16:36:38.091Z,2.93
2022-11-03T16:39:05.279Z,4.03
2022-11-03T16:41:32.599Z,4.33
2022-11-03T16:43:59.700Z,4.50
2022-11-03T16:46:26.855Z,6.77
2022-11-03T16:48:54.151Z,5.33
2022-11-03T16:51:21.547Z,3.93
2022-11-03T16:53:52.757Z,3.13
2022-11-03T16:56:20.004Z,3.63
2022-11-03T16:58:47.092Z,4.87
2022-11-03T17:01:14.400Z,4.47
2022-11-03T17:03:41.538Z,4.50
2022-11-03T17:06:08.768Z,3.67
2022-11-03T17:08:52.250Z,4.67
2022-11-03T17:11:37.268Z,3.77
2022-11-03T17:14:13.249Z,5.77
2022-11-03T17:16:48.481Z,3.40
2022-11-03T17:19:16.168Z,4.27
2022-11-03T17:21:43.589Z,3.07
2022-11-03T17:24:11.390Z,4.40
2022-11-03T17:27:18.072Z,2.73
2022-11-03T17:29:52.667Z,4.63
2022-11-03T17:32:31.594Z,3.40
2022-11-03T17:34:58.977Z,3.10
2022-11-03T17:37:28.512Z,3.17
2022-11-03T17:39:57.356Z,3.93
2022-11-03T17:42:28.575Z,3.43
2022-11-03T17:44:57.002Z,3.90
2022-11-03T17:47:24.450Z,3.40
2022-11-03T17:49:52.027Z,5.77
2022-11-03T17:52:27.827Z,3.50
2022-11-03T17:54:59.704Z,4.20
2022-11-03T17:57:27.435Z,6.93
2022-11-03T18:00:00.069Z,4.27
2022-11-03T18:02:30.616Z,5.57
2022-11-03T18:05:26.820Z,3.33
2022-11-03T18:07:57.686Z,4.10
2022-11-03T18:10:30.476Z,3.67
2022-11-03T18:13:16.476Z,4.63
2022-11-03T18:15:49.742Z,3.93
2022-11-03T18:18:19.619Z,3.53
2022-11-03T18:20:53.410Z,4.47
2022-11-03T18:23:26.918Z,3.63
2022-11-03T18:25:54.445Z,3.40
2022-11-03T18:28:22.085Z,3.23
2022-11-03T18:30:52.451Z,2.80
2022-11-03T18:33:29.427Z,2.37
2022-11-03T18:35:57.411Z,2.77
2022-11-03T18:38:26.400Z,3.57
2022-11-03T18:40:56.047Z,2.30
2022-11-03T18:43:28.398Z,3.40
2022-11-03T18:45:55.501Z,3.17
2022-11-03T18:48:24.662Z,3.60
2022-11-03T18:50:56.603Z,4.80
2022-11-03T18:53:25.489Z,4.57
2022-11-03T18:55:53.851Z,3.50
2022-11-03T18:58:24.101Z,3.77
2022-11-03T19:00:52.646Z,4.20
2022-11-03T19:03:22.531Z,2.97
2022-11-03T19:05:54.400Z,2.13
2022-11-03T19:08:32.357Z,2.93
2022-11-03T19:11:03.972Z,2.43
2022-11-03T19:13:35.776Z,3.23
2022-11-03T19:16:13.260Z,1.77
2022-11-03T19:18:41.425Z,3.40
2022-11-03T19:21:16.217Z,3.70
2022-11-03T19:23:47.783Z,2.90
2022-11-03T19:26:23.761Z,3.33
2022-11-03T19:29:00.792Z,3.17
2022-11-03T19:31:35.112Z,2.70
2022-11-03T19:34:03.391Z,3.57
2022-11-03T19:36:34.073Z,4.33
2022-11-03T19:39:02.311Z,3.87
2022-11-03T19:41:47.694Z,3.67
2022-11-03T19:44:14.836Z,3.27
2022-11-03T19:46:42.245Z,2.83
2022-11-03T19:49:15.000Z,2.77
2022-11-03T19:51:42.328Z,3.10
2022-11-03T19:54:17.527Z,2.07
2022-11-03T19:56:46.572Z,3.10
2022-11-03T19:59:15.745Z,2.40
2022-11-03T20:01:43.147Z,2.57
2022-11-03T20:04:10.473Z,2.23
2022-11-03T20:06:38.908Z,2.20
2022-11-03T20:09:08.451Z,1.80
2022-11-03T20:11:37.937Z,1.60
2022-11-03T20:14:05.216Z,3.47
2022-11-03T20:16:32.371Z,2.10
2022-11-03T20:18:59.560Z,3.23
2022-11-03T20:21:33.058Z,2.27
2022-11-03T20:24:01.660Z,1.90
2022-11-03T20:26:28.772Z,1.20
2022-11-03T20:28:58.857Z,0.50
2022-11-03T20:31:28.084Z,0.40
2022-11-03T20:33:55.189Z,2.63
2022-11-03T20:36:22.399Z,1.43
2022-11-03T20:38:59.077Z,1.17
2022-11-03T20:41:30.258Z,0.60
2022-11-03T20:44:02.220Z,0.60
2022-11-03T20:46:32.172Z,1.47
2022-11-03T20:48:59.870Z,0.87
2022-11-03T20:51:47.401Z,0.90
2022-11-03T20:54:23.412Z,1.17
2022-11-03T20:56:50.967Z,1.30
2022-11-03T20:59:18.520Z,0.80
2022-11-03T21:01:45.909Z,1.70
2022-11-03T21:04:18.263Z,0.63
2022-11-03T21:06:48.581Z,1.00
2022-11-03T21:09:18.053Z,1.27
2022-11-03T21:11:46.769Z,1.63
2022-11-03T21:14:29.642Z,1.27
2022-11-03T21:17:16.119Z,0.70
2022-11-03T21:19:43.259Z,0.80
2022-11-03T21:25:17.683Z,1.30
2022-11-03T21:27:45.228Z,1.10
2022-11-03T21:30:14.149Z,1.00
2022-11-03T21:32:41.955Z,0.60
2022-11-03T21:35:20.225Z,1.03
2022-11-03T21:37:47.670Z,1.73
2022-11-03T21:40:19.580Z,1.23
2022-11-03T21:43:05.268Z,0.97
2022-11-03T21:45:32.978Z,1.37
2022-11-03T21:48:19.295Z,1.60
2022-11-03T21:50:46.966Z,1.50
2022-11-03T21:53:14.204Z,1.70
2022-11-03T21:55:46.696Z,1.83
2022-11-03T21:58:16.164Z,2.20
2022-11-03T22:00:43.394Z,1.50
2022-11-03T22:03:11.287Z,1.37
2022-11-03T22:05:38.727Z,1.87
2022-11-03T22:08:08.614Z,2.30
2022-11-03T22:10:39.736Z,3.50
2022-11-03T22:13:07.202Z,1.63
2022-11-03T22:15:53.689Z,1.80
2022-11-03T22:18:20.873Z,2.50
2022-11-03T22:21:06.680Z,2.70
2022-11-03T22:23:52.153Z,2.83
2022-11-03T22:26:37.647Z,2.87
2022-11-03T22:29:23.232Z,2.30
2022-11-03T22:31:50.290Z,3.20
2022-11-03T22:34:36.198Z,6.13
2022-11-03T22:37:05.766Z,3.60
2022-11-03T22:39:51.609Z,3.43
2022-11-03T22:42:37.033Z,4.20
2022-11-03T22:45:22.733Z,2.73
2022-11-03T22:47:57.108Z,3.00
2022-11-03T22:50:24.752Z,2.87
2022-11-03T22:52:51.820Z,3.07
2022-11-03T22:55:21.144Z,4.23
2022-11-03T22:57:48.404Z,2.23
2022-11-03T23:00:16.886Z,3.67
2022-11-03T23:02:44.496Z,2.47
2022-11-03T23:05:11.553Z,3.43
2022-11-03T23:07:41.625Z,1.83
2022-11-03T23:10:09.408Z,2.83
2022-11-03T23:12:36.503Z,2.60
2022-11-03T23:15:22.160Z,2.23
2022-11-03T23:18:08.155Z,2.67
2022-11-03T23:21:13.593Z,5.00
2022-11-03T23:24:01.393Z,3.17
2022-11-03T23:26:28.737Z,2.70
2022-11-03T23:28:56.041Z,2.10
2022-11-03T23:31:23.330Z,4.73
2022-11-03T23:33:52.709Z,4.20
2022-11-03T23:36:19.880Z,3.70
2022-11-03T23:38:49.232Z,3.10
2022-11-03T23:41:18.961Z,2.90
2022-11-03T23:43:47.596Z,2.47
2022-11-03T23:46:36.792Z,1.87
2022-11-03T23:49:07.194Z,2.03
2022-11-03T23:51:35.571Z,5.13
2022-11-03T23:54:06.455Z,5.20
2022-11-03T23:57:00.569Z,4.33
2022-11-03T23:59:29.646Z,3.63
